Terminal Aerodrome Forecast
Issued by NWS Milwaukee/Sullivan, WI

Home | Current Version | Previous Version | Text Only | Print | Product List | Glossary On
Versions: 1 2 3 4 5 6 7 8 9 10 11 12 13 14 15 16 17 18 19 20 21 22 23 24 25 26 27 28 29 30
000
FTUS43 KMKX 301409 AAC
TAFMKE
TAF AMD
KMKE 301409Z 3014/0118 04011KT 4SM -RA BR SCT007 OVC016
      TEMPO 3014/3016 3SM -RA OVC007
     FM301600 04012G20KT P6SM VCSH OVC010
     FM302100 04011G19KT 5SM BR VCSH SCT010 OVC015
     FM302300 04011KT 3SM -SHRA BR OVC008=

USA.gov is the U.S. government's official web portal to all federal, state and local government web resources and services.